createdAt,value
2024-01-15T00:00:08.686Z,1.20
2024-01-15T00:02:37.343Z,1.20
2024-01-15T00:05:07.714Z,1.20
2024-01-15T00:07:36.323Z,1.10
2024-01-15T00:10:05.271Z,1.10
2024-01-15T00:12:34.070Z,1.10
2024-01-15T00:15:03.127Z,1.10
2024-01-15T00:17:31.824Z,1.10
2024-01-15T00:20:00.603Z,1.10
2024-01-15T00:22:30.719Z,1.10
2024-01-15T00:24:59.393Z,1.00
2024-01-15T00:27:28.262Z,1.00
2024-01-15T00:29:56.893Z,1.10
2024-01-15T00:32:25.582Z,1.00
2024-01-15T00:34:54.299Z,1.00
2024-01-15T00:37:23.054Z,1.00
2024-01-15T00:39:53.096Z,0.90
2024-01-15T00:42:21.807Z,0.90
2024-01-15T00:44:50.599Z,0.90
2024-01-15T00:47:20.976Z,0.90
2024-01-15T00:49:49.670Z,0.80
2024-01-15T00:52:18.480Z,0.80
2024-01-15T00:54:47.162Z,0.80
2024-01-15T00:57:20.856Z,0.80
2024-01-15T00:59:49.843Z,0.80
2024-01-15T01:02:18.769Z,0.80
2024-01-15T01:04:47.386Z,0.80
2024-01-15T01:07:16.021Z,0.80
2024-01-15T01:09:45.252Z,0.80
2024-01-15T01:12:14.141Z,0.80
2024-01-15T01:14:44.235Z,0.80
2024-01-15T01:17:12.923Z,0.80
2024-01-15T01:19:41.968Z,0.70
2024-01-15T01:22:10.685Z,0.80
2024-01-15T01:24:39.375Z,0.80
2024-01-15T01:27:08.242Z,0.80
2024-01-15T01:29:37.294Z,0.80
2024-01-15T01:32:07.928Z,0.70
2024-01-15T01:34:43.603Z,0.70
2024-01-15T01:37:13.922Z,0.70
2024-01-15T01:39:43.043Z,0.80
2024-01-15T01:42:12.823Z,0.80
2024-01-15T01:44:41.587Z,0.80
2024-01-15T01:47:11.791Z,0.70
2024-01-15T01:49:41.037Z,0.80
2024-01-15T01:52:10.807Z,0.80
2024-01-15T01:54:40.394Z,0.70
2024-01-15T01:57:10.670Z,0.70
2024-01-15T01:59:39.898Z,0.60
2024-01-15T02:02:09.290Z,0.60
2024-01-15T02:04:40.011Z,0.60
2024-01-15T02:07:08.992Z,0.60
2024-01-15T02:09:37.849Z,0.60
2024-01-15T02:12:07.179Z,0.60
2024-01-15T02:14:35.873Z,0.50
2024-01-15T02:17:04.740Z,0.50
2024-01-15T02:19:33.539Z,0.50
2024-01-15T02:22:03.699Z,0.50
2024-01-15T02:24:33.964Z,0.50
2024-01-15T02:27:02.726Z,0.50
2024-01-15T02:29:31.527Z,0.50
2024-01-15T02:32:00.164Z,0.50
2024-01-15T02:34:28.873Z,0.40
2024-01-15T02:36:57.529Z,0.40
2024-01-15T02:39:26.219Z,0.50
2024-01-15T02:41:57.326Z,0.40
2024-01-15T02:44:25.967Z,0.50
2024-01-15T02:46:54.654Z,0.50
2024-01-15T02:49:23.597Z,0.60
2024-01-15T02:51:52.455Z,0.70
2024-01-15T02:54:21.201Z,0.70
2024-01-15T02:56:49.872Z,0.60
2024-01-15T02:59:19.929Z,0.60
2024-01-15T03:01:48.774Z,0.60
2024-01-15T03:04:17.782Z,0.60
2024-01-15T03:06:46.784Z,0.60
2024-01-15T03:09:15.580Z,0.60
2024-01-15T03:11:45.192Z,0.60
2024-01-15T03:14:13.876Z,0.60
2024-01-15T03:16:44.013Z,0.60
2024-01-15T03:19:12.743Z,0.50
2024-01-15T03:21:41.310Z,0.50
2024-01-15T03:24:09.953Z,0.50
2024-01-15T03:26:38.588Z,0.50
2024-01-15T03:29:07.393Z,0.50
2024-01-15T03:31:36.264Z,0.50
2024-01-15T03:34:06.445Z,0.60
2024-01-15T03:36:35.261Z,0.60
2024-01-15T03:39:05.347Z,0.60
2024-01-15T03:41:34.003Z,0.60
2024-01-15T03:44:02.905Z,0.60
2024-01-15T03:46:31.562Z,0.70
2024-01-15T03:49:00.397Z,0.70
2024-01-15T03:51:30.569Z,0.60
2024-01-15T03:53:59.208Z,0.70
2024-01-15T03:56:27.877Z,0.70
2024-01-15T03:58:56.447Z,0.70
2024-01-15T04:01:25.045Z,0.70
2024-01-15T04:03:53.816Z,0.70
2024-01-15T04:06:22.566Z,0.70
2024-01-15T04:08:52.640Z,0.60
2024-01-15T04:11:21.541Z,0.60
2024-01-15T04:13:50.178Z,0.60
2024-01-15T04:16:18.805Z,0.60
2024-01-15T04:18:47.507Z,0.50
2024-01-15T04:21:16.180Z,0.50
2024-01-15T04:23:45.598Z,0.50
2024-01-15T04:26:15.724Z,0.50
2024-01-15T04:28:44.413Z,0.50
2024-01-15T04:31:23.666Z,0.50
2024-01-15T04:33:52.777Z,0.60
2024-01-15T04:36:21.646Z,0.50
2024-01-15T04:38:50.354Z,0.60
2024-01-15T04:41:20.495Z,0.80
2024-01-15T04:43:49.282Z,0.80
2024-01-15T04:46:18.210Z,0.90
2024-01-15T04:48:47.090Z,0.90
2024-01-15T04:51:16.031Z,0.90
2024-01-15T04:53:44.658Z,0.80
2024-01-15T04:56:13.355Z,0.90
2024-01-15T04:58:43.414Z,1.00
2024-01-15T05:01:12.446Z,1.00
2024-01-15T05:03:41.181Z,0.90
2024-01-15T05:06:10.022Z,0.90
2024-01-15T05:08:38.656Z,0.80
2024-01-15T05:11:07.450Z,0.80
2024-01-15T05:13:36.180Z,0.80
2024-01-15T05:16:06.672Z,0.80
2024-01-15T05:18:35.556Z,0.90
2024-01-15T05:21:04.506Z,0.90
2024-01-15T05:23:33.846Z,0.90
2024-01-15T05:26:02.584Z,0.90
2024-01-15T05:28:31.271Z,0.90
2024-01-15T05:31:00.038Z,1.00
2024-01-15T05:33:30.180Z,1.00
2024-01-15T05:36:00.069Z,1.00
2024-01-15T05:38:29.702Z,1.10
2024-01-15T05:40:58.300Z,1.10
2024-01-15T05:43:26.941Z,1.10
2024-01-15T05:45:55.619Z,1.20
2024-01-15T05:48:24.435Z,1.20
2024-01-15T05:50:54.515Z,1.20
2024-01-15T05:53:23.131Z,1.20
2024-01-15T05:55:51.760Z,1.30
2024-01-15T05:58:20.370Z,1.30
2024-01-15T06:00:51.227Z,1.20
2024-01-15T06:03:20.109Z,1.10
2024-01-15T06:05:48.872Z,1.10
2024-01-15T06:08:20.099Z,1.20
2024-01-15T06:10:48.687Z,1.20
2024-01-15T06:13:17.290Z,1.10
2024-01-15T06:15:45.892Z,1.10
2024-01-15T06:18:14.768Z,1.10
2024-01-15T06:20:43.843Z,1.10
2024-01-15T06:23:12.783Z,1.10
2024-01-15T06:25:42.834Z,1.20
2024-01-15T06:28:11.607Z,1.30
2024-01-15T06:30:40.229Z,1.30
2024-01-15T06:33:09.233Z,1.30
2024-01-15T06:35:37.974Z,1.30
2024-01-15T06:38:07.198Z,1.30
2024-01-15T06:40:35.865Z,1.30
2024-01-15T06:43:06.176Z,1.30
2024-01-15T06:45:34.817Z,1.30
2024-01-15T06:48:03.525Z,1.10
2024-01-15T06:50:32.282Z,1.00
2024-01-15T06:53:00.895Z,0.90
2024-01-15T06:55:29.539Z,0.90
2024-01-15T06:57:58.229Z,0.80
2024-01-15T07:00:28.645Z,0.80
2024-01-15T07:02:57.410Z,0.80
2024-01-15T07:05:26.590Z,0.80
2024-01-15T07:07:55.291Z,0.90
2024-01-15T07:10:23.966Z,0.90
2024-01-15T07:12:52.657Z,0.90
2024-01-15T07:15:21.505Z,1.00
2024-01-15T07:17:51.552Z,1.00
2024-01-15T07:20:20.882Z,0.90
2024-01-15T07:22:49.736Z,0.90
2024-01-15T07:25:18.536Z,0.90
2024-01-15T07:27:48.228Z,0.90
2024-01-15T07:30:17.612Z,1.00
2024-01-15T07:32:46.489Z,1.00
2024-01-15T07:35:17.983Z,1.10
2024-01-15T07:37:47.223Z,1.10
2024-01-15T07:40:16.334Z,1.10
2024-01-15T07:42:45.166Z,1.10
2024-01-15T07:45:14.114Z,1.00
2024-01-15T07:47:42.864Z,1.00
2024-01-15T07:50:11.674Z,0.90
2024-01-15T07:52:42.938Z,0.90
2024-01-15T07:55:11.742Z,1.00
2024-01-15T07:57:40.485Z,1.00
2024-01-15T08:00:10.480Z,0.90
2024-01-15T08:02:39.675Z,0.90
2024-01-15T08:05:08.529Z,0.90
2024-01-15T08:07:37.190Z,1.00
2024-01-15T08:10:08.156Z,1.10
2024-01-15T08:12:36.885Z,1.10
2024-01-15T08:15:06.883Z,1.10
2024-01-15T08:17:35.729Z,1.10
2024-01-15T08:20:06.496Z,1.10
2024-01-15T08:22:35.247Z,1.10
2024-01-15T08:25:04.663Z,1.10
2024-01-15T08:27:34.746Z,1.10
2024-01-15T08:30:03.857Z,1.00
2024-01-15T08:32:32.490Z,0.90
2024-01-15T08:35:01.220Z,0.90
2024-01-15T08:37:29.979Z,0.80
2024-01-15T08:39:58.615Z,0.80
2024-01-15T08:42:27.304Z,0.80
2024-01-15T08:44:57.300Z,0.80
2024-01-15T08:47:26.870Z,0.80
2024-01-15T08:49:55.716Z,0.90
2024-01-15T08:52:24.373Z,1.00
2024-01-15T08:54:53.098Z,1.00
2024-01-15T08:57:23.292Z,1.10
2024-01-15T08:59:53.291Z,1.10
2024-01-15T09:02:23.976Z,1.10
2024-01-15T09:04:53.076Z,1.10
2024-01-15T09:07:21.831Z,1.20
2024-01-15T09:09:50.492Z,1.20
2024-01-15T09:12:19.839Z,1.10
2024-01-15T09:14:48.752Z,1.10
2024-01-15T09:17:17.436Z,1.00
2024-01-15T09:19:47.535Z,1.00
2024-01-15T09:22:19.528Z,1.00
2024-01-15T09:24:48.824Z,1.10
2024-01-15T09:27:17.665Z,1.20
2024-01-15T09:29:47.359Z,1.30
2024-01-15T09:32:17.193Z,1.60
2024-01-15T09:34:47.779Z,1.80
2024-01-15T09:37:31.338Z,1.70
2024-01-15T09:40:07.960Z,1.60
2024-01-15T09:42:38.489Z,1.50
2024-01-15T09:45:08.378Z,1.50
2024-01-15T09:47:37.682Z,1.40
2024-01-15T09:50:10.258Z,1.30
2024-01-15T09:52:39.107Z,1.30
2024-01-15T09:55:09.652Z,1.20
2024-01-15T09:57:39.074Z,1.20
2024-01-15T10:00:12.134Z,1.20
2024-01-15T10:02:41.294Z,1.30
2024-01-15T10:05:11.876Z,1.30
2024-01-15T10:07:42.082Z,1.40
2024-01-15T10:10:12.347Z,1.50
2024-01-15T10:12:41.802Z,1.60
2024-01-15T10:15:13.393Z,1.60
2024-01-15T10:17:42.750Z,1.70
2024-01-15T10:20:14.584Z,1.80
2024-01-15T10:22:44.696Z,1.80
2024-01-15T10:25:14.318Z,2.00
2024-01-15T10:27:43.617Z,2.10
2024-01-15T10:30:15.932Z,2.00
2024-01-15T10:32:59.260Z,2.10
2024-01-15T10:35:31.587Z,2.20
2024-01-15T10:38:00.582Z,2.30
2024-01-15T10:40:29.574Z,2.40
2024-01-15T10:42:58.623Z,2.40
2024-01-15T10:45:27.600Z,2.50
2024-01-15T10:48:00.322Z,2.50
2024-01-15T10:50:33.504Z,2.80
2024-01-15T10:53:03.795Z,2.90
2024-01-15T10:55:33.938Z,2.90
2024-01-15T10:58:03.220Z,2.80
2024-01-15T11:00:32.576Z,2.70
2024-01-15T11:03:03.762Z,2.50
2024-01-15T11:05:36.067Z,2.30
2024-01-15T11:08:07.875Z,2.50
2024-01-15T11:10:44.056Z,2.80
2024-01-15T11:13:16.708Z,3.00
2024-01-15T11:16:01.923Z,3.00
2024-01-15T11:18:32.258Z,2.90
2024-01-15T11:21:27.549Z,2.90
2024-01-15T11:24:01.032Z,2.90
2024-01-15T11:26:30.237Z,2.70
2024-01-15T11:29:00.175Z,2.70
2024-01-15T11:31:30.549Z,2.70
2024-01-15T11:34:01.271Z,2.60
2024-01-15T11:37:05.966Z,2.60
2024-01-15T11:39:45.454Z,2.70
2024-01-15T11:42:15.160Z,2.90
2024-01-15T11:44:44.216Z,3.20
2024-01-15T11:47:16.423Z,3.50
2024-01-15T11:50:06.414Z,3.80
2024-01-15T11:52:36.946Z,3.70
2024-01-15T11:55:21.298Z,3.50
2024-01-15T11:57:55.480Z,3.30
2024-01-15T12:00:25.332Z,3.10
2024-01-15T12:02:54.399Z,3.10
2024-01-15T12:05:23.631Z,3.00
2024-01-15T12:07:52.745Z,2.80
2024-01-15T12:10:23.308Z,2.70
2024-01-15T12:12:59.850Z,2.60
2024-01-15T12:15:30.832Z,2.50
2024-01-15T12:18:01.774Z,2.60
2024-01-15T12:20:31.349Z,2.70
2024-01-15T12:23:02.689Z,2.60
2024-01-15T12:25:35.170Z,2.60
2024-01-15T12:28:04.449Z,2.50
2024-01-15T12:30:35.675Z,2.40
2024-01-15T12:33:06.201Z,2.40
2024-01-15T12:35:35.913Z,2.30
2024-01-15T12:38:05.218Z,2.30
2024-01-15T12:40:37.253Z,2.30
2024-01-15T12:43:09.183Z,2.30
2024-01-15T12:45:38.923Z,2.30
2024-01-15T12:48:08.439Z,2.20
2024-01-15T12:50:37.601Z,2.40
2024-01-15T12:53:06.700Z,2.60
2024-01-15T12:55:36.873Z,2.70
2024-01-15T12:58:05.950Z,2.90
2024-01-15T13:00:34.771Z,3.00
2024-01-15T13:03:05.427Z,3.10
2024-01-15T13:05:37.851Z,3.20
2024-01-15T13:08:07.386Z,3.10
2024-01-15T13:10:37.353Z,2.90
2024-01-15T13:13:07.649Z,2.80
2024-01-15T13:15:36.818Z,2.70
2024-01-15T13:18:06.273Z,2.60
2024-01-15T13:20:35.174Z,2.50
2024-01-15T13:23:05.346Z,2.40
2024-01-15T13:25:34.926Z,2.30
2024-01-15T13:28:06.260Z,2.30
2024-01-15T13:30:35.125Z,2.40
2024-01-15T13:33:06.174Z,2.50
2024-01-15T13:35:35.101Z,2.60
2024-01-15T13:38:04.318Z,2.80
2024-01-15T13:40:32.980Z,2.90
2024-01-15T13:43:01.745Z,3.10
2024-01-15T13:45:32.036Z,3.20
2024-01-15T13:48:00.849Z,3.30
2024-01-15T13:50:30.085Z,3.30
2024-01-15T13:52:58.916Z,3.40
2024-01-15T13:55:27.735Z,3.50
2024-01-15T13:57:56.603Z,3.60
2024-01-15T14:00:25.526Z,3.70
2024-01-15T14:02:55.694Z,3.60
2024-01-15T14:05:24.423Z,3.30
2024-01-15T14:07:53.118Z,2.80
2024-01-15T14:10:21.791Z,2.40
2024-01-15T14:12:50.524Z,2.30
2024-01-15T14:15:20.349Z,2.10
2024-01-15T14:17:49.158Z,2.10
2024-01-15T14:20:22.407Z,2.00
2024-01-15T14:22:51.706Z,2.10
2024-01-15T14:25:20.833Z,2.10
2024-01-15T14:27:49.624Z,2.20
2024-01-15T14:30:19.034Z,2.30
2024-01-15T14:32:48.258Z,2.30
2024-01-15T14:35:18.422Z,2.30
2024-01-15T14:37:49.597Z,2.30
2024-01-15T14:40:19.558Z,2.30
2024-01-15T14:42:48.635Z,2.40
2024-01-15T14:45:17.456Z,2.30
2024-01-15T14:47:46.775Z,2.20
2024-01-15T14:50:17.970Z,2.10
2024-01-15T14:52:48.441Z,2.00
2024-01-15T14:55:17.245Z,1.80
2024-01-15T14:57:46.095Z,1.70
2024-01-15T15:00:18.125Z,1.70
2024-01-15T15:02:47.081Z,1.60
2024-01-15T15:05:18.174Z,1.60
2024-01-15T15:07:48.713Z,1.60
2024-01-15T15:10:17.946Z,1.70
2024-01-15T15:12:46.761Z,1.70
2024-01-15T15:15:20.636Z,1.60
2024-01-15T15:17:50.611Z,1.60
2024-01-15T15:20:20.386Z,1.60
2024-01-15T15:22:50.662Z,1.60
2024-01-15T15:25:19.391Z,1.70
2024-01-15T15:27:49.894Z,1.80
2024-01-15T15:30:18.763Z,1.80
2024-01-15T15:32:50.388Z,1.70
2024-01-15T15:35:19.357Z,1.60
2024-01-15T15:38:08.458Z,1.50
2024-01-15T15:40:37.748Z,1.40
2024-01-15T15:43:07.073Z,1.30
2024-01-15T15:45:35.855Z,1.40
2024-01-15T15:48:04.796Z,1.30
2024-01-15T15:50:34.824Z,1.20
2024-01-15T15:53:06.053Z,1.30
2024-01-15T15:55:37.549Z,1.40
2024-01-15T15:58:06.991Z,1.50
2024-01-15T16:00:35.816Z,1.60
2024-01-15T16:03:04.788Z,1.50
2024-01-15T16:05:42.431Z,1.40
2024-01-15T16:08:20.054Z,1.40
2024-01-15T16:10:49.804Z,1.30
2024-01-15T16:13:18.879Z,1.30
2024-01-15T16:15:48.141Z,1.40
2024-01-15T16:23:20.122Z,1.50
2024-01-15T16:23:35.013Z,1.60
2024-01-15T16:24:12.854Z,1.60
2024-01-15T16:26:45.323Z,1.70
2024-01-15T16:29:14.359Z,1.70
2024-01-15T16:31:43.010Z,1.80
2024-01-15T16:34:13.321Z,1.90
2024-01-15T16:36:42.280Z,2.00
2024-01-15T16:39:12.511Z,2.10
2024-01-15T16:41:41.145Z,2.00
2024-01-15T16:44:10.227Z,1.80
2024-01-15T16:46:38.852Z,1.70
2024-01-15T16:49:11.241Z,1.60
2024-01-15T16:51:40.028Z,1.60
2024-01-15T16:54:09.181Z,1.60
2024-01-15T16:56:39.542Z,1.60
2024-01-15T16:59:08.364Z,1.50
2024-01-15T17:01:37.399Z,1.40
2024-01-15T17:04:06.899Z,1.30
2024-01-15T17:06:36.759Z,1.20
2024-01-15T17:09:05.635Z,1.20
2024-01-15T17:11:34.847Z,1.10
2024-01-15T17:14:05.895Z,1.10
2024-01-15T17:16:34.675Z,1.00
2024-01-15T17:19:03.443Z,0.90
2024-01-15T17:21:32.159Z,1.00
2024-01-15T17:24:00.873Z,1.00
2024-01-15T17:26:29.677Z,1.10
2024-01-15T17:28:58.478Z,1.10
2024-01-15T17:31:28.932Z,1.10
2024-01-15T17:33:59.984Z,1.10
2024-01-15T17:36:28.917Z,1.00
2024-01-15T17:38:58.507Z,0.90
2024-01-15T17:41:27.383Z,1.00
2024-01-15T17:43:56.193Z,0.90
2024-01-15T17:46:26.166Z,0.80
2024-01-15T17:49:00.265Z,0.90
2024-01-15T17:51:28.972Z,0.80
2024-01-15T17:53:58.272Z,0.90
2024-01-15T17:56:27.175Z,0.90
2024-01-15T17:58:56.865Z,1.00
2024-01-15T18:01:25.699Z,1.10
2024-01-15T18:03:54.768Z,1.10
2024-01-15T18:06:25.018Z,1.10
2024-01-15T18:08:53.844Z,1.20
2024-01-15T18:11:22.670Z,1.20
2024-01-15T18:13:51.555Z,1.30
2024-01-15T18:16:23.842Z,1.30
2024-01-15T18:18:53.173Z,1.30
2024-01-15T18:21:22.471Z,1.30
2024-01-15T18:23:52.965Z,1.30
2024-01-15T18:26:21.932Z,1.10
2024-01-15T18:28:50.912Z,0.90
2024-01-15T18:31:19.685Z,1.00
2024-01-15T18:33:48.878Z,1.00
2024-01-15T18:36:18.014Z,1.10
2024-01-15T18:38:47.129Z,1.20
2024-01-15T18:41:25.626Z,1.20
2024-01-15T18:43:55.687Z,1.10
2024-01-15T18:46:23.641Z,1.00
2024-01-15T18:48:52.502Z,0.90
2024-01-15T18:51:24.528Z,0.80
2024-01-15T18:53:53.609Z,0.80
2024-01-15T18:56:24.002Z,0.90
2024-01-15T18:58:53.159Z,0.80
2024-01-15T19:01:28.850Z,0.80
2024-01-15T19:03:58.244Z,0.70
2024-01-15T19:06:27.998Z,0.70
2024-01-15T19:08:56.797Z,0.60
2024-01-15T19:11:27.446Z,0.60
2024-01-15T19:13:56.282Z,0.50
2024-01-15T19:16:25.327Z,0.50
2024-01-15T19:18:54.623Z,0.50
2024-01-15T19:21:23.621Z,0.50
2024-01-15T19:23:52.341Z,0.40
2024-01-15T19:26:21.454Z,0.50
2024-01-15T19:28:51.781Z,0.40
2024-01-15T19:31:21.189Z,0.50
2024-01-15T19:33:50.103Z,0.50
2024-01-15T19:36:23.454Z,0.50
2024-01-15T19:38:52.821Z,0.60
2024-01-15T19:41:22.241Z,0.70
2024-01-15T19:43:52.463Z,0.90
2024-01-15T19:46:21.158Z,1.00
2024-01-15T19:48:50.525Z,1.10
2024-01-15T19:51:19.466Z,1.10
2024-01-15T19:53:48.924Z,1.20
2024-01-15T19:56:18.876Z,1.20
2024-01-15T19:58:48.044Z,1.20
2024-01-15T20:01:18.829Z,1.20
2024-01-15T20:03:48.387Z,1.20
2024-01-15T20:06:17.334Z,1.30
2024-01-15T20:08:47.524Z,1.20
2024-01-15T20:11:17.853Z,1.10
2024-01-15T20:13:47.274Z,1.00
2024-01-15T20:16:18.141Z,0.90
2024-01-15T20:18:46.829Z,0.90
2024-01-15T20:21:15.698Z,0.70
2024-01-15T20:23:54.342Z,0.70
2024-01-15T20:26:27.138Z,0.50
2024-01-15T20:28:56.636Z,0.50
2024-01-15T20:31:26.846Z,0.30
2024-01-15T20:33:55.713Z,0.30
2024-01-15T20:36:24.609Z,0.20
2024-01-15T20:38:53.388Z,0.20
2024-01-15T20:41:22.121Z,0.20
2024-01-15T20:43:50.994Z,0.20
2024-01-15T20:46:19.882Z,0.10
2024-01-15T20:48:50.254Z,0.10
2024-01-15T20:51:19.116Z,0.10
2024-01-15T20:53:50.188Z,0.10
2024-01-15T20:56:19.034Z,0.10
2024-01-15T20:58:50.953Z,0.10
2024-01-15T21:01:19.813Z,0.10
2024-01-15T21:03:50.232Z,0.10
2024-01-15T21:06:19.776Z,0.00
2024-01-15T21:08:48.888Z,0.10
2024-01-15T21:11:19.568Z,0.10
2024-01-15T21:13:51.064Z,0.10
2024-01-15T21:16:19.781Z,0.10
2024-01-15T21:18:51.564Z,0.10
2024-01-15T21:21:20.499Z,0.10
2024-01-15T21:23:49.473Z,0.10
2024-01-15T21:26:18.954Z,0.20
2024-01-15T21:28:49.090Z,0.20
2024-01-15T21:31:18.426Z,0.20
2024-01-15T21:33:47.809Z,0.30
2024-01-15T21:36:18.187Z,0.20
2024-01-15T21:38:47.077Z,0.20
2024-01-15T21:41:15.949Z,0.20
2024-01-15T21:43:44.942Z,0.30
2024-01-15T21:46:13.698Z,0.40
2024-01-15T21:48:42.967Z,0.50
2024-01-15T21:51:11.870Z,0.60
2024-01-15T21:53:42.138Z,0.60
2024-01-15T21:56:13.043Z,0.70
2024-01-15T21:58:41.909Z,0.70
2024-01-15T22:01:10.620Z,0.80
2024-01-15T22:03:39.374Z,0.80
2024-01-15T22:06:10.433Z,0.80
2024-01-15T22:08:39.320Z,0.80
2024-01-15T22:11:09.539Z,0.80
2024-01-15T22:13:38.311Z,0.80
2024-01-15T22:16:07.630Z,0.80
2024-01-15T22:18:37.002Z,0.70
2024-01-15T22:21:06.009Z,0.70
2024-01-15T22:23:34.871Z,0.60
2024-01-15T22:26:05.897Z,0.60
2024-01-15T22:28:35.959Z,0.60
2024-01-15T22:31:04.777Z,0.60
2024-01-15T22:33:33.696Z,0.70
2024-01-15T22:36:02.460Z,0.70
2024-01-15T22:38:32.212Z,0.80
2024-01-15T22:41:00.960Z,0.80
2024-01-15T22:43:29.654Z,0.90
2024-01-15T22:45:59.765Z,0.90
2024-01-15T22:48:28.650Z,0.80
2024-01-15T22:50:57.418Z,0.80
2024-01-15T22:53:26.237Z,0.70
2024-01-15T22:55:55.069Z,0.60
2024-01-15T22:58:23.981Z,0.50
2024-01-15T23:00:52.815Z,0.30
2024-01-15T23:03:23.043Z,0.20
2024-01-15T23:05:52.664Z,0.10
2024-01-15T23:08:22.829Z,0.10
2024-01-15T23:10:51.680Z,0.10
2024-01-15T23:13:20.369Z,0.10
2024-01-15T23:15:49.165Z,0.10
2024-01-15T23:18:18.256Z,0.10
2024-01-15T23:20:48.784Z,0.10
2024-01-15T23:23:17.884Z,0.10
2024-01-15T23:25:46.963Z,0.10
2024-01-15T23:28:15.748Z,0.00
2024-01-15T23:30:43.850Z,0.00
2024-01-15T23:33:14.037Z,0.00
2024-01-15T23:35:43.057Z,0.00
2024-01-15T23:38:13.683Z,0.00
2024-01-15T23:40:42.584Z,0.00
2024-01-15T23:43:11.201Z,0.00
2024-01-15T23:45:42.190Z,0.00
2024-01-15T23:48:10.929Z,0.00
2024-01-15T23:50:39.639Z,0.00
2024-01-15T23:53:08.444Z,-0.10
2024-01-15T23:55:38.873Z,0.00
2024-01-15T23:58:07.602Z,0.00
